الصفحة الرئيسية
METAR-TAF:

METAR-TAF

مطار :

مطار ترايان فويا الدولي

تيميشوارا, رومانيا

دائرة عرض: 45-46N, خط طول: 021-15E, ارتفاع: 86 متر

مراقبة الطقس الحالي

تاريخ ووقت الإصدار 11 دقيقة قبل الساعة 21:00UTC
ريح 5 عقدة من الغرب/الشمال الغربي
درجة الحرارة 13°درجة مئوية
الرطوبة 94%
ضغط 1017 hPa
الرؤية 10 كم أو أكثر
غيوم قليلة على ارتفاع 5000 قدم, مزنة ركامية.

METAR: LRTR 292100Z 29005KT 9999 FEW050CB 13/12 Q1017

زمن: 00:11 (21:11 UTC)

توقعات

تاريخ ووقت الإصدار 4ساعات و 11 دقيقة قبل الساعة 17:00UTC
التوقعات صالحة من29 الساعة 18 UTC إلى 30 الساعة 18 UTC
ريح 7 عقدة من الشمال
الرؤية 10 كم أو أكثر
غيوم متفرقة على ارتفاع 4500 قدم, مزنة ركامية.
نظرية الاحتمالات 30% :
مؤقت
من 29 الساعة 18 UTC إلى 29 الساعة 20 UTC
الرؤية: 5000 متر
زخات من الأمطار الخفيفة
أصبح
من 29 الساعة 20 UTC إلى 29 الساعة 22 UTC

TAF: LRTR 291700Z 2918/3018 36007KT 9999 SCT045CB PROB30 TEMPO 2918/2920 5000 -SHRA BECMG 2920/2922 NSC

أرصاد الطقس والتوقعات من أكثر من 4000 مطار (تقارير الطقس للمطار METAR والتنبؤ بالطقس بالمطارTAF).

المحطات المتاحة هي النقط الصفراء والحمراء على الخريطة.

حرك المؤشر فوق النقطة لمعرفة اسم المحطة.

ثم انقر لمعرفة أرصاد وتوقعات الطقس.

لتغيير الخارطة: اضغط على الأزرار الخضراء مع رمز الصليب الأسود للتكبير. على الزر الأخضر مع شرطة للتصغير، أو على الأسهم الخضراء للخرائط المجاورة.


METAR-TAF: